sensor_id;sensor_type;location;lat;lon;timestamp;pressure;altitude;pressure_sealevel;temperature;humidity
23677;BME280;31493;49.058;12.190;2022-08-25T00:01:52;96332.47;;;17.75;100.00
23677;BME280;31493;49.058;12.190;2022-08-25T00:04:20;96338.81;;;17.62;100.00
23677;BME280;31493;49.058;12.190;2022-08-25T00:06:49;96341.28;;;17.64;100.00
23677;BME280;31493;49.058;12.190;2022-08-25T00:09:21;96335.22;;;17.63;100.00
23677;BME280;31493;49.058;12.190;2022-08-25T00:11:49;96337.84;;;17.63;100.00
23677;BME280;31493;49.058;12.190;2022-08-25T00:14:19;96339.34;;;17.66;100.00
23677;BME280;31493;49.058;12.190;2022-08-25T00:16:47;96334.41;;;17.63;100.00
23677;BME280;31493;49.058;12.190;2022-08-25T00:19:17;96343.47;;;17.59;100.00
23677;BME280;31493;49.058;12.190;2022-08-25T00:21:45;96338.66;;;17.64;100.00
23677;BME280;31493;49.058;12.190;2022-08-25T00:24:15;96327.06;;;17.66;100.00
23677;BME280;31493;49.058;12.190;2022-08-25T00:26:45;96327.38;;;17.63;100.00
23677;BME280;31493;49.058;12.190;2022-08-25T00:29:13;96318.81;;;17.61;100.00
23677;BME280;31493;49.058;12.190;2022-08-25T00:31:41;96319.09;;;17.58;100.00
23677;BME280;31493;49.058;12.190;2022-08-25T00:34:10;96331.53;;;17.46;100.00
23677;BME280;31493;49.058;12.190;2022-08-25T00:36:38;96329.88;;;17.45;100.00
23677;BME280;31493;49.058;12.190;2022-08-25T00:39:06;96313.59;;;17.42;100.00
23677;BME280;31493;49.058;12.190;2022-08-25T00:41:35;96321.47;;;17.52;100.00
23677;BME280;31493;49.058;12.190;2022-08-25T00:44:06;96317.59;;;17.46;100.00
23677;BME280;31493;49.058;12.190;2022-08-25T00:46:36;96328.63;;;17.40;100.00
23677;BME280;31493;49.058;12.190;2022-08-25T00:49:07;96309.47;;;17.49;100.00
23677;BME280;31493;49.058;12.190;2022-08-25T00:51:38;96326.28;;;17.37;100.00
23677;BME280;31493;49.058;12.190;2022-08-25T00:54:12;96313.34;;;17.35;100.00
23677;BME280;31493;49.058;12.190;2022-08-25T00:56:43;96320.41;;;17.25;100.00
23677;BME280;31493;49.058;12.190;2022-08-25T00:59:11;96323.44;;;17.21;100.00
23677;BME280;31493;49.058;12.190;2022-08-25T01:01:39;96315.56;;;17.30;100.00
23677;BME280;31493;49.058;12.190;2022-08-25T01:04:06;96307.28;;;17.35;100.00
23677;BME280;31493;49.058;12.190;2022-08-25T01:06:35;96316.94;;;17.34;100.00
23677;BME280;31493;49.058;12.190;2022-08-25T01:09:05;96316.78;;;17.36;100.00
23677;BME280;31493;49.058;12.190;2022-08-25T01:11:32;96311.16;;;17.31;100.00
23677;BME280;31493;49.058;12.190;2022-08-25T01:14:02;96304.00;;;17.33;100.00
23677;BME280;31493;49.058;12.190;2022-08-25T01:16:32;96308.25;;;17.34;100.00
23677;BME280;31493;49.058;12.190;2022-08-25T01:19:00;96303.69;;;17.36;100.00
23677;BME280;31493;49.058;12.190;2022-08-25T01:21:31;96317.78;;;17.25;100.00
23677;BME280;31493;49.058;12.190;2022-08-25T01:24:03;96310.06;;;17.14;100.00
23677;BME280;31493;49.058;12.190;2022-08-25T01:26:32;96312.69;;;17.14;100.00
23677;BME280;31493;49.058;12.190;2022-08-25T01:29:03;96315.31;;;17.14;100.00
23677;BME280;31493;49.058;12.190;2022-08-25T01:31:54;96322.72;;;17.18;100.00
23677;BME280;31493;49.058;12.190;2022-08-25T01:34:25;96325.88;;;17.12;100.00
23677;BME280;31493;49.058;12.190;2022-08-25T01:36:55;96318.19;;;17.21;100.00
23677;BME280;31493;49.058;12.190;2022-08-25T01:39:22;96317.22;;;17.12;100.00
23677;BME280;31493;49.058;12.190;2022-08-25T01:41:58;96319.97;;;17.10;100.00
23677;BME280;31493;49.058;12.190;2022-08-25T01:44:30;96316.13;;;17.05;100.00
23677;BME280;31493;49.058;12.190;2022-08-25T01:46:58;96305.50;;;17.06;100.00
23677;BME280;31493;49.058;12.190;2022-08-25T01:49:25;96313.22;;;16.98;100.00
23677;BME280;31493;49.058;12.190;2022-08-25T01:51:56;96313.22;;;16.98;100.00
23677;BME280;31493;49.058;12.190;2022-08-25T01:54:25;96315.88;;;16.88;100.00
23677;BME280;31493;49.058;12.190;2022-08-25T01:56:52;96301.97;;;16.88;100.00
23677;BME280;31493;49.058;12.190;2022-08-25T01:59:20;96316.53;;;16.90;100.00
23677;BME280;31493;49.058;12.190;2022-08-25T02:01:48;96303.47;;;16.90;100.00
23677;BME280;31493;49.058;12.190;2022-08-25T02:04:15;96307.44;;;16.85;100.00
23677;BME280;31493;49.058;12.190;2022-08-25T02:06:42;96294.38;;;16.85;100.00
23677;BME280;31493;49.058;12.190;2022-08-25T02:09:14;96294.50;;;16.93;100.00
23677;BME280;31493;49.058;12.190;2022-08-25T02:11:43;96306.34;;;16.87;100.00
23677;BME280;31493;49.058;12.190;2022-08-25T02:14:12;96303.88;;;16.86;100.00
23677;BME280;31493;49.058;12.190;2022-08-25T02:16:41;96306.22;;;16.89;100.00
23677;BME280;31493;49.058;12.190;2022-08-25T02:19:10;96299.91;;;16.82;100.00
23677;BME280;31493;49.058;12.190;2022-08-25T02:21:37;96294.78;;;16.80;100.00
23677;BME280;31493;49.058;12.190;2022-08-25T02:24:05;96301.28;;;16.76;100.00
23677;BME280;31493;49.058;12.190;2022-08-25T02:26:34;96291.63;;;16.86;100.00
23677;BME280;31493;49.058;12.190;2022-08-25T02:29:02;96284.19;;;16.72;100.00
23677;BME280;31493;49.058;12.190;2022-08-25T02:31:29;96300.16;;;16.79;100.00
23677;BME280;31493;49.058;12.190;2022-08-25T02:33:56;96297.25;;;16.72;100.00
23677;BME280;31493;49.058;12.190;2022-08-25T02:36:24;96299.59;;;16.75;100.00
23677;BME280;31493;49.058;12.190;2022-08-25T02:38:51;96298.38;;;16.79;100.00
23677;BME280;31493;49.058;12.190;2022-08-25T02:41:22;96296.28;;;16.73;100.00
23677;BME280;31493;49.058;12.190;2022-08-25T02:43:51;96300.59;;;16.84;100.00
23677;BME280;31493;49.058;12.190;2022-08-25T02:46:19;96291.50;;;16.88;100.00
23677;BME280;31493;49.058;12.190;2022-08-25T02:48:46;96286.41;;;16.77;100.00
23677;BME280;31493;49.058;12.190;2022-08-25T02:51:14;96288.47;;;16.73;100.00
23677;BME280;31493;49.058;12.190;2022-08-25T02:53:41;96281.81;;;16.69;100.00
23677;BME280;31493;49.058;12.190;2022-08-25T02:56:11;96284.69;;;16.56;100.00
23677;BME280;31493;49.058;12.190;2022-08-25T02:58:39;96277.66;;;16.57;100.00
23677;BME280;31493;49.058;12.190;2022-08-25T03:01:08;96271.06;;;16.62;100.00
23677;BME280;31493;49.058;12.190;2022-08-25T03:03:36;96269.59;;;16.70;100.00
23677;BME280;31493;49.058;12.190;2022-08-25T03:06:05;96279.94;;;16.71;100.00
23677;BME280;31493;49.058;12.190;2022-08-25T03:08:32;96263.50;;;16.69;100.00
23677;BME280;31493;49.058;12.190;2022-08-25T03:11:00;96263.53;;;16.59;100.00
23677;BME280;31493;49.058;12.190;2022-08-25T03:13:27;96255.53;;;16.61;100.00
23677;BME280;31493;49.058;12.190;2022-08-25T03:15:54;96258.00;;;16.62;100.00
23677;BME280;31493;49.058;12.190;2022-08-25T03:18:23;96267.63;;;16.62;100.00
23677;BME280;31493;49.058;12.190;2022-08-25T03:20:50;96260.75;;;16.61;100.00
23677;BME280;31493;49.058;12.190;2022-08-25T03:23:17;96267.66;;;16.52;100.00
23677;BME280;31493;49.058;12.190;2022-08-25T03:25:44;96253.59;;;16.44;100.00
23677;BME280;31493;49.058;12.190;2022-08-25T03:28:30;96261.72;;;16.41;100.00
23677;BME280;31493;49.058;12.190;2022-08-25T03:30:58;96253.47;;;16.45;100.00
23677;BME280;31493;49.058;12.190;2022-08-25T03:33:28;96253.16;;;16.38;100.00
23677;BME280;31493;49.058;12.190;2022-08-25T03:35:56;96252.91;;;16.42;100.00
23677;BME280;31493;49.058;12.190;2022-08-25T03:38:24;96259.78;;;16.33;100.00
23677;BME280;31493;49.058;12.190;2022-08-25T03:40:52;96257.72;;;16.27;100.00
23677;BME280;31493;49.058;12.190;2022-08-25T03:43:19;96267.47;;;16.34;100.00
23677;BME280;31493;49.058;12.190;2022-08-25T03:45:47;96258.69;;;16.35;100.00
23677;BME280;31493;49.058;12.190;2022-08-25T03:48:15;96252.06;;;16.31;100.00
23677;BME280;31493;49.058;12.190;2022-08-25T03:50:45;96246.28;;;16.37;100.00
23677;BME280;31493;49.058;12.190;2022-08-25T03:53:13;96258.25;;;16.30;100.00
23677;BME280;31493;49.058;12.190;2022-08-25T03:55:40;96267.88;;;16.30;100.00
23677;BME280;31493;49.058;12.190;2022-08-25T03:58:07;96272.84;;;16.33;100.00
23677;BME280;31493;49.058;12.190;2022-08-25T04:00:34;96271.06;;;16.33;100.00
23677;BME280;31493;49.058;12.190;2022-08-25T04:03:01;96277.78;;;16.36;100.00
23677;BME280;31493;49.058;12.190;2022-08-25T04:05:29;96274.19;;;16.27;100.00
23677;BME280;31493;49.058;12.190;2022-08-25T04:07:57;96272.13;;;16.31;100.00
23677;BME280;31493;49.058;12.190;2022-08-25T04:10:26;96269.25;;;16.34;100.00
23677;BME280;31493;49.058;12.190;2022-08-25T04:12:53;96265.69;;;16.35;100.00
23677;BME280;31493;49.058;12.190;2022-08-25T04:15:20;96262.50;;;16.31;100.00
23677;BME280;31493;49.058;12.190;2022-08-25T04:17:49;96259.34;;;16.28;100.00
23677;BME280;31493;49.058;12.190;2022-08-25T04:20:16;96257.13;;;16.23;100.00
23677;BME280;31493;49.058;12.190;2022-08-25T04:22:43;96271.69;;;16.26;100.00
23677;BME280;31493;49.058;12.190;2022-08-25T04:25:12;96262.41;;;16.33;100.00
23677;BME280;31493;49.058;12.190;2022-08-25T04:27:39;96267.19;;;16.28;100.00
23677;BME280;31493;49.058;12.190;2022-08-25T04:30:07;96252.34;;;16.28;100.00
23677;BME280;31493;49.058;12.190;2022-08-25T04:32:34;96257.13;;;16.23;100.00
23677;BME280;31493;49.058;12.190;2022-08-25T04:35:02;96252.72;;;16.24;100.00
23677;BME280;31493;49.058;12.190;2022-08-25T04:37:30;96246.16;;;16.29;100.00
23677;BME280;31493;49.058;12.190;2022-08-25T04:39:58;96254.03;;;16.39;100.00
23677;BME280;31493;49.058;12.190;2022-08-25T04:42:26;96248.91;;;16.37;100.00
23677;BME280;31493;49.058;12.190;2022-08-25T04:44:53;96254.03;;;16.39;100.00
23677;BME280;31493;49.058;12.190;2022-08-25T04:47:20;96251.50;;;16.37;100.00
23677;BME280;31493;49.058;12.190;2022-08-25T04:49:47;96256.75;;;16.37;100.00
23677;BME280;31493;49.058;12.190;2022-08-25T04:52:15;96251.41;;;16.39;100.00
23677;BME280;31493;49.058;12.190;2022-08-25T04:54:42;96251.25;;;16.41;100.00
23677;BME280;31493;49.058;12.190;2022-08-25T04:57:09;96256.09;;;16.45;100.00
23677;BME280;31493;49.058;12.190;2022-08-25T04:59:38;96258.16;;;16.51;100.00
23677;BME280;31493;49.058;12.190;2022-08-25T05:02:05;96264.31;;;16.50;100.00
23677;BME280;31493;49.058;12.190;2022-08-25T05:04:33;96258.28;;;16.50;100.00
23677;BME280;31493;49.058;12.190;2022-08-25T05:07:02;96253.88;;;16.60;100.00
23677;BME280;31493;49.058;12.190;2022-08-25T05:09:29;96263.53;;;16.59;100.00
23677;BME280;31493;49.058;12.190;2022-08-25T05:11:56;96258.00;;;16.62;100.00
23677;BME280;31493;49.058;12.190;2022-08-25T05:14:23;96257.91;;;16.64;100.00
23677;BME280;31493;49.058;12.190;2022-08-25T05:16:52;96255.56;;;16.80;100.00
23677;BME280;31493;49.058;12.190;2022-08-25T05:19:19;96261.63;;;16.81;100.00
23677;BME280;31493;49.058;12.190;2022-08-25T05:21:47;96262.59;;;16.89;100.00
23677;BME280;31493;49.058;12.190;2022-08-25T05:24:14;96251.31;;;16.89;100.00
23677;BME280;31493;49.058;12.190;2022-08-25T05:26:41;96242.63;;;16.98;100.00
23677;BME280;31493;49.058;12.190;2022-08-25T05:29:08;96238.78;;;17.02;100.00
23677;BME280;31493;49.058;12.190;2022-08-25T05:31:36;96242.88;;;17.05;100.00
23677;BME280;31493;49.058;12.190;2022-08-25T05:34:06;96249.09;;;17.13;100.00
23677;BME280;31493;49.058;12.190;2022-08-25T05:36:34;96245.09;;;17.19;100.00
23677;BME280;31493;49.058;12.190;2022-08-25T05:39:02;96253.47;;;17.23;100.00
23677;BME280;31493;49.058;12.190;2022-08-25T05:41:30;96248.63;;;17.37;100.00
23677;BME280;31493;49.058;12.190;2022-08-25T05:43:58;96260.72;;;17.48;100.00
23677;BME280;31493;49.058;12.190;2022-08-25T05:46:25;96247.59;;;17.58;100.00
23677;BME280;31493;49.058;12.190;2022-08-25T05:48:52;96241.22;;;17.70;100.00
23677;BME280;31493;49.058;12.190;2022-08-25T05:51:21;96243.16;;;17.78;100.00
23677;BME280;31493;49.058;12.190;2022-08-25T05:53:49;96249.44;;;17.85;100.00
23677;BME280;31493;49.058;12.190;2022-08-25T05:56:17;96242.53;;;17.93;100.00
23677;BME280;31493;49.058;12.190;2022-08-25T05:58:45;96257.38;;;18.03;100.00
23677;BME280;31493;49.058;12.190;2022-08-25T06:01:21;96240.88;;;18.20;100.00
23677;BME280;31493;49.058;12.190;2022-08-25T06:04:07;96240.13;;;18.27;100.00
23677;BME280;31493;49.058;12.190;2022-08-25T06:06:37;96240.91;;;18.38;100.00
23677;BME280;31493;49.058;12.190;2022-08-25T06:09:04;96235.81;;;18.36;100.00
23677;BME280;31493;49.058;12.190;2022-08-25T06:11:35;96244.94;;;18.32;100.00
23677;BME280;31493;49.058;12.190;2022-08-25T06:14:04;96236.78;;;18.53;100.00
23677;BME280;31493;49.058;12.190;2022-08-25T06:16:31;96234.63;;;18.66;100.00
23677;BME280;31493;49.058;12.190;2022-08-25T06:18:58;96232.56;;;18.70;100.00
23677;BME280;31493;49.058;12.190;2022-08-25T06:21:25;96217.78;;;18.87;100.00
23677;BME280;31493;49.058;12.190;2022-08-25T06:23:54;96227.91;;;18.99;100.00
23677;BME280;31493;49.058;12.190;2022-08-25T06:26:21;96228.09;;;19.06;100.00
23677;BME280;31493;49.058;12.190;2022-08-25T06:28:48;96219.00;;;19.18;100.00
23677;BME280;31493;49.058;12.190;2022-08-25T06:31:16;96216.50;;;19.35;100.00
23677;BME280;31493;49.058;12.190;2022-08-25T06:33:44;96214.66;;;19.53;100.00
23677;BME280;31493;49.058;12.190;2022-08-25T06:36:11;96218.00;;;19.63;100.00
23677;BME280;31493;49.058;12.190;2022-08-25T06:38:38;96205.88;;;19.70;100.00
23677;BME280;31493;49.058;12.190;2022-08-25T06:41:07;96211.00;;;19.72;100.00
23677;BME280;31493;49.058;12.190;2022-08-25T06:43:35;96216.78;;;19.83;100.00
23677;BME280;31493;49.058;12.190;2022-08-25T06:46:07;96217.66;;;20.00;100.00
23677;BME280;31493;49.058;12.190;2022-08-25T06:48:34;96211.19;;;20.21;100.00
23677;BME280;31493;49.058;12.190;2022-08-25T06:51:04;96207.91;;;20.43;100.00
23677;BME280;31493;49.058;12.190;2022-08-25T06:53:32;96203.56;;;20.52;100.00
23677;BME280;31493;49.058;12.190;2022-08-25T06:56:00;96209.31;;;20.63;100.00
23677;BME280;31493;49.058;12.190;2022-08-25T06:58:28;96206.34;;;20.91;100.00
23677;BME280;31493;49.058;12.190;2022-08-25T07:00:55;96204.06;;;20.80;99.91
23677;BME280;31493;49.058;12.190;2022-08-25T07:03:23;96210.00;;;21.06;99.29
23677;BME280;31493;49.058;12.190;2022-08-25T07:05:51;96200.91;;;21.17;98.23
23677;BME280;31493;49.058;12.190;2022-08-25T07:08:18;96208.13;;;21.23;97.46
23677;BME280;31493;49.058;12.190;2022-08-25T07:10:46;96206.00;;;21.27;96.31
23677;BME280;31493;49.058;12.190;2022-08-25T07:13:13;96205.88;;;21.36;97.75
23677;BME280;31493;49.058;12.190;2022-08-25T07:15:42;96203.97;;;21.69;95.00
23677;BME280;31493;49.058;12.190;2022-08-25T07:18:10;96201.28;;;21.78;91.52
23677;BME280;31493;49.058;12.190;2022-08-25T07:20:37;96214.53;;;21.61;93.74
23677;BME280;31493;49.058;12.190;2022-08-25T07:23:05;96210.69;;;21.72;94.37
23677;BME280;31493;49.058;12.190;2022-08-25T07:25:33;96206.88;;;21.83;93.43
23677;BME280;31493;49.058;12.190;2022-08-25T07:28:00;96205.00;;;21.99;92.56
23677;BME280;31493;49.058;12.190;2022-08-25T07:30:27;96202.66;;;22.13;91.71
23677;BME280;31493;49.058;12.190;2022-08-25T07:32:55;96200.38;;;22.10;90.49
23677;BME280;31493;49.058;12.190;2022-08-25T07:35:23;96195.59;;;22.05;90.19
23677;BME280;31493;49.058;12.190;2022-08-25T07:37:51;96201.31;;;22.09;88.35
23677;BME280;31493;49.058;12.190;2022-08-25T07:40:24;96199.69;;;22.47;87.73
23677;BME280;31493;49.058;12.190;2022-08-25T07:42:54;96196.13;;;22.32;87.07
23677;BME280;31493;49.058;12.190;2022-08-25T07:45:25;96199.94;;;22.52;86.00
23677;BME280;31493;49.058;12.190;2022-08-25T07:47:57;96194.34;;;22.55;86.22
23677;BME280;31493;49.058;12.190;2022-08-25T07:50:25;96188.25;;;22.55;84.68
23677;BME280;31493;49.058;12.190;2022-08-25T07:52:52;96185.94;;;22.51;84.03
23677;BME280;31493;49.058;12.190;2022-08-25T07:55:19;96187.38;;;22.62;82.15
23677;BME280;31493;49.058;12.190;2022-08-25T07:57:46;96176.69;;;23.01;82.60
23677;BME280;31493;49.058;12.190;2022-08-25T08:00:14;96183.09;;;22.61;81.24
23677;BME280;31493;49.058;12.190;2022-08-25T08:02:42;96184.84;;;22.69;81.66
23677;BME280;31493;49.058;12.190;2022-08-25T08:05:12;96180.41;;;22.92;81.70
23677;BME280;31493;49.058;12.190;2022-08-25T08:07:40;96186.88;;;22.82;80.29
23677;BME280;31493;49.058;12.190;2022-08-25T08:10:10;96175.97;;;23.08;80.58
23677;BME280;31493;49.058;12.190;2022-08-25T08:12:37;96186.59;;;22.76;79.48
23677;BME280;31493;49.058;12.190;2022-08-25T08:15:05;96183.09;;;22.84;78.60
23677;BME280;31493;49.058;12.190;2022-08-25T08:17:32;96181.13;;;23.01;80.00
23677;BME280;31493;49.058;12.190;2022-08-25T08:20:00;96180.16;;;23.02;79.13
23677;BME280;31493;49.058;12.190;2022-08-25T08:22:30;96185.97;;;22.97;80.17
23677;BME280;31493;49.058;12.190;2022-08-25T08:24:57;96191.16;;;23.05;80.14
23677;BME280;31493;49.058;12.190;2022-08-25T08:27:24;96201.56;;;22.84;81.42
23677;BME280;31493;49.058;12.190;2022-08-25T08:29:51;96199.63;;;22.78;80.60
23677;BME280;31493;49.058;12.190;2022-08-25T08:32:19;96191.78;;;22.93;81.30
23677;BME280;31493;49.058;12.190;2022-08-25T08:34:46;96202.31;;;22.70;82.05
23677;BME280;31493;49.058;12.190;2022-08-25T08:37:14;96201.44;;;22.55;83.59
23677;BME280;31493;49.058;12.190;2022-08-25T08:39:42;96204.78;;;22.48;84.85
23677;BME280;31493;49.058;12.190;2022-08-25T08:42:18;96196.81;;;22.25;86.30
23677;BME280;31493;49.058;12.190;2022-08-25T08:44:58;96206.75;;;22.15;87.08
23677;BME280;31493;49.058;12.190;2022-08-25T08:47:39;96192.59;;;22.16;87.94
23677;BME280;31493;49.058;12.190;2022-08-25T08:50:17;96205.84;;;22.31;88.09
23677;BME280;31493;49.058;12.190;2022-08-25T08:52:51;96182.63;;;22.35;87.32
23677;BME280;31493;49.058;12.190;2022-08-25T08:55:25;96191.34;;;22.58;86.76
23677;BME280;31493;49.058;12.190;2022-08-25T08:57:56;96197.91;;;22.62;86.20
23677;BME280;31493;49.058;12.190;2022-08-25T09:00:24;96200.59;;;22.31;87.37
23677;BME280;31493;49.058;12.190;2022-08-25T09:02:56;96197.84;;;22.47;87.67
23677;BME280;31493;49.058;12.190;2022-08-25T09:05:28;96193.69;;;22.22;88.35
23677;BME280;31493;49.058;12.190;2022-08-25T09:07:58;96202.72;;;22.27;88.65
23677;BME280;31493;49.058;12.190;2022-08-25T09:10:40;96199.22;;;22.12;88.89
23677;BME280;31493;49.058;12.190;2022-08-25T09:13:17;96212.72;;;22.09;89.07
23677;BME280;31493;49.058;12.190;2022-08-25T09:15:52;96200.50;;;22.08;88.92
23677;BME280;31493;49.058;12.190;2022-08-25T09:18:45;96189.84;;;22.33;88.37
23677;BME280;31493;49.058;12.190;2022-08-25T09:21:23;96192.16;;;22.59;86.08
23677;BME280;31493;49.058;12.190;2022-08-25T09:24:08;96180.91;;;22.42;85.84
23677;BME280;31493;49.058;12.190;2022-08-25T09:26:44;96173.34;;;22.85;83.88
23677;BME280;31493;49.058;12.190;2022-08-25T09:29:20;96177.88;;;22.99;84.84
23677;BME280;31493;49.058;12.190;2022-08-25T09:31:48;96166.09;;;23.54;83.23
23677;BME280;31493;49.058;12.190;2022-08-25T09:34:18;96173.22;;;23.01;82.31
23677;BME280;31493;49.058;12.190;2022-08-25T09:36:45;96165.53;;;23.14;82.64
23677;BME280;31493;49.058;12.190;2022-08-25T09:39:16;96150.97;;;23.33;79.40
23677;BME280;31493;49.058;12.190;2022-08-25T09:41:46;96164.22;;;23.77;76.71
23677;BME280;31493;49.058;12.190;2022-08-25T09:44:20;96159.00;;;24.35;74.95
23677;BME280;31493;49.058;12.190;2022-08-25T09:46:59;96151.59;;;24.30;74.02
23677;BME280;31493;49.058;12.190;2022-08-25T09:49:36;96152.19;;;24.11;75.48
23677;BME280;31493;49.058;12.190;2022-08-25T09:52:22;96156.31;;;24.50;74.92
23677;BME280;31493;49.058;12.190;2022-08-25T09:54:49;96153.66;;;24.13;75.82
23677;BME280;31493;49.058;12.190;2022-08-25T09:57:30;96147.56;;;24.13;75.03
23677;BME280;31493;49.058;12.190;2022-08-25T10:00:10;96140.03;;;24.53;75.87
23677;BME280;31493;49.058;12.190;2022-08-25T10:02:38;96142.84;;;24.30;75.16
23677;BME280;31493;49.058;12.190;2022-08-25T10:05:18;96144.41;;;24.39;74.41
23677;BME280;31493;49.058;12.190;2022-08-25T10:07:50;96136.22;;;24.55;75.50
23677;BME280;31493;49.058;12.190;2022-08-25T10:10:26;96135.22;;;24.20;75.19
23677;BME280;31493;49.058;12.190;2022-08-25T10:12:56;96142.41;;;24.26;73.57
23677;BME280;31493;49.058;12.190;2022-08-25T10:15:29;96121.41;;;24.39;73.87
23677;BME280;31493;49.058;12.190;2022-08-25T10:18:18;96123.19;;;25.31;72.19
23677;BME280;31493;49.058;12.190;2022-08-25T10:21:00;96121.28;;;24.97;72.55
23677;BME280;31493;49.058;12.190;2022-08-25T10:23:28;96129.47;;;24.74;71.74
23677;BME280;31493;49.058;12.190;2022-08-25T10:25:57;96121.88;;;24.92;71.73
23677;BME280;31493;49.058;12.190;2022-08-25T10:28:33;96123.91;;;24.48;73.18
23677;BME280;31493;49.058;12.190;2022-08-25T10:31:08;96116.75;;;24.63;72.72
23677;BME280;31493;49.058;12.190;2022-08-25T10:33:47;96109.50;;;25.00;72.48
23677;BME280;31493;49.058;12.190;2022-08-25T10:36:21;96106.31;;;24.83;72.52
23677;BME280;31493;49.058;12.190;2022-08-25T10:38:53;96105.56;;;25.17;71.32
23677;BME280;31493;49.058;12.190;2022-08-25T10:41:38;96105.84;;;25.01;71.89
23677;BME280;31493;49.058;12.190;2022-08-25T10:44:20;96102.75;;;25.25;71.33
23677;BME280;31493;49.058;12.190;2022-08-25T10:47:26;96097.16;;;25.41;70.75
23677;BME280;31493;49.058;12.190;2022-08-25T10:50:03;96103.63;;;25.32;68.92
23677;BME280;31493;49.058;12.190;2022-08-25T10:52:37;96095.81;;;24.96;70.12
23677;BME280;31493;49.058;12.190;2022-08-25T10:55:10;96098.22;;;24.63;70.75
23677;BME280;31493;49.058;12.190;2022-08-25T10:57:50;96092.50;;;24.87;70.04
23677;BME280;31493;49.058;12.190;2022-08-25T11:00:26;96099.75;;;24.79;70.38
23677;BME280;31493;49.058;12.190;2022-08-25T11:03:14;96091.34;;;25.25;69.27
23677;BME280;31493;49.058;12.190;2022-08-25T11:05:49;96096.16;;;25.42;69.00
23677;BME280;31493;49.058;12.190;2022-08-25T11:08:23;96088.69;;;25.25;68.96
23677;BME280;31493;49.058;12.190;2022-08-25T11:11:02;96091.88;;;25.41;68.41
23677;BME280;31493;49.058;12.190;2022-08-25T11:13:37;96091.75;;;25.63;68.07
23677;BME280;31493;49.058;12.190;2022-08-25T11:16:10;96084.03;;;24.99;68.12
23677;BME280;31493;49.058;12.190;2022-08-25T11:18:44;96077.56;;;25.77;67.67
23677;BME280;31493;49.058;12.190;2022-08-25T11:21:15;96105.75;;;25.50;66.67
23677;BME280;31493;49.058;12.190;2022-08-25T11:23:50;96089.84;;;25.50;66.41
23677;BME280;31493;49.058;12.190;2022-08-25T11:26:25;96098.19;;;25.47;67.48
23677;BME280;31493;49.058;12.190;2022-08-25T11:28:59;96085.41;;;25.57;67.51
23677;BME280;31493;49.058;12.190;2022-08-25T11:31:29;96088.59;;;25.46;67.56
23677;BME280;31493;49.058;12.190;2022-08-25T11:33:56;96086.94;;;25.38;66.95
23677;BME280;31493;49.058;12.190;2022-08-25T11:36:27;96081.78;;;25.71;66.09
23677;BME280;31493;49.058;12.190;2022-08-25T11:39:06;96066.28;;;26.36;64.21
23677;BME280;31493;49.058;12.190;2022-08-25T11:41:45;96087.44;;;26.03;63.59
23677;BME280;31493;49.058;12.190;2022-08-25T11:44:37;96068.75;;;26.44;61.45
23677;BME280;31493;49.058;12.190;2022-08-25T11:47:26;96060.75;;;26.38;62.56
23677;BME280;31493;49.058;12.190;2022-08-25T11:49:58;96066.50;;;26.68;61.58
23677;BME280;31493;49.058;12.190;2022-08-25T11:52:43;96070.41;;;26.52;61.81
23677;BME280;31493;49.058;12.190;2022-08-25T11:55:14;96067.53;;;26.80;60.72
23677;BME280;31493;49.058;12.190;2022-08-25T11:57:44;96062.22;;;26.73;61.05
23677;BME280;31493;49.058;12.190;2022-08-25T12:00:13;96061.81;;;26.50;60.55
23677;BME280;31493;49.058;12.190;2022-08-25T12:02:45;96062.03;;;26.62;61.21
23677;BME280;31493;49.058;12.190;2022-08-25T12:08:13;96043.81;;;26.92;59.87
23677;BME280;31493;49.058;12.190;2022-08-25T12:10:59;96051.78;;;26.92;60.27
23677;BME280;31493;49.058;12.190;2022-08-25T12:13:44;96041.59;;;26.89;59.35
23677;BME280;31493;49.058;12.190;2022-08-25T12:16:31;96050.59;;;26.41;59.18
23677;BME280;31493;49.058;12.190;2022-08-25T12:19:47;96034.25;;;26.77;60.51
23677;BME280;31493;49.058;12.190;2022-08-25T12:25:28;96057.47;;;26.09;62.80
23677;BME280;31493;49.058;12.190;2022-08-25T12:28:03;96060.78;;;25.70;65.17
23677;BME280;31493;49.058;12.190;2022-08-25T12:30:41;96058.44;;;25.47;66.24
23677;BME280;31493;49.058;12.190;2022-08-25T12:33:20;96056.00;;;25.52;65.36
23677;BME280;31493;49.058;12.190;2022-08-25T12:35:56;96053.91;;;25.76;64.12
23677;BME280;31493;49.058;12.190;2022-08-25T12:38:28;96051.16;;;25.56;65.74
23677;BME280;31493;49.058;12.190;2022-08-25T12:41:01;96052.97;;;25.49;66.23
23677;BME280;31493;49.058;12.190;2022-08-25T12:43:34;96052.31;;;25.46;65.42
23677;BME280;31493;49.058;12.190;2022-08-25T12:46:36;96055.28;;;25.71;65.00
23677;BME280;31493;49.058;12.190;2022-08-25T12:49:11;96060.25;;;25.40;65.38
23677;BME280;31493;49.058;12.190;2022-08-25T12:51:52;96058.00;;;25.37;65.53
23677;BME280;31493;49.058;12.190;2022-08-25T12:54:36;96042.59;;;25.54;66.24
23677;BME280;31493;49.058;12.190;2022-08-25T12:57:22;96051.16;;;25.56;65.74
23677;BME280;31493;49.058;12.190;2022-08-25T12:59:55;96049.28;;;25.50;65.56
23677;BME280;31493;49.058;12.190;2022-08-25T13:02:56;96037.72;;;25.70;64.47
23677;BME280;31493;49.058;12.190;2022-08-25T13:05:41;96027.53;;;25.67;63.71
23677;BME280;31493;49.058;12.190;2022-08-25T13:08:59;96024.59;;;25.90;63.28
23677;BME280;31493;49.058;12.190;2022-08-25T13:11:35;96030.25;;;25.81;64.28
23677;BME280;31493;49.058;12.190;2022-08-25T13:14:13;96028.03;;;25.84;63.06